Time;durP1;ratioP1;P1;durP2;ratioP2;P2;SDS_P1;SDS_P2;PMS_P1;PMS_P2;Temp;Humidity;BMP_temperature;BMP_pressure;BME280_temperature;BME280_humidity;BME280_pressure;Samples;Min_cycle;Max_cycle;Signal;HPM_P1;HPM_P2
2022/09/02 00:00:51;;;;;;;2.10;0.77;;;;;;;21.06;42.30;101867.00;5048552;27;96847;-67
2022/09/02 00:03:18;;;;;;;1.20;0.80;;;;;;;21.12;41.97;101879.19;5047662;27;98218;-68
2022/09/02 00:05:44;;;;;;;3.42;0.88;;;;;;;21.11;42.20;101874.78;5048320;27;98776;-70
2022/09/02 00:08:12;;;;;;;0.57;0.57;;;;;;;21.00;42.01;101878.09;5048399;27;97490;-67
2022/09/02 00:10:41;;;;;;;1.30;0.65;;;;;;;21.09;41.86;101871.31;5049608;27;97709;-69
2022/09/02 00:13:10;;;;;;;1.90;0.95;;;;;;;20.88;42.06;101870.78;5045272;27;99643;-66
2022/09/02 00:15:38;;;;;;;1.23;1.00;;;;;;;21.03;41.81;101867.19;5050135;27;98643;-67
2022/09/02 00:18:06;;;;;;;3.33;0.70;;;;;;;21.08;41.66;101869.56;5049009;27;96770;-67
2022/09/02 00:20:33;;;;;;;2.03;0.63;;;;;;;21.16;41.38;101871.81;5050436;27;97301;-71
2022/09/02 00:22:59;;;;;;;3.55;1.10;;;;;;;21.11;41.59;101871.22;5049341;27;98137;-68
2022/09/02 00:25:26;;;;;;;1.00;0.88;;;;;;;21.00;41.60;101866.50;5047221;27;99238;-67
2022/09/02 00:27:54;;;;;;;2.03;0.90;;;;;;;20.77;42.17;101867.91;5052772;27;96899;-67
2022/09/02 00:30:20;;;;;;;1.13;0.70;;;;;;;20.95;41.88;101868.59;5049262;27;97266;-69
2022/09/02 00:32:48;;;;;;;1.52;0.95;;;;;;;21.01;41.84;101857.47;5049531;27;99237;-67
2022/09/02 00:35:14;;;;;;;1.05;0.90;;;;;;;20.98;41.85;101865.72;5047403;27;99470;-68
2022/09/02 00:37:41;;;;;;;1.30;0.73;;;;;;;20.97;42.10;101867.56;5049659;27;97075;-67
2022/09/02 00:40:10;;;;;;;1.35;0.77;;;;;;;21.08;41.95;101865.06;5047037;27;98058;-67
2022/09/02 00:42:37;;;;;;;4.20;1.05;;;;;;;20.96;42.06;101855.06;5044007;27;101645;-67
2022/09/02 00:45:06;;;;;;;2.47;0.95;;;;;;;21.03;41.81;101852.88;5045999;27;98887;-67
2022/09/02 00:47:35;;;;;;;3.35;1.10;;;;;;;21.08;41.66;101850.75;5045907;27;96733;-67
2022/09/02 00:50:07;;;;;;;2.28;0.95;;;;;;;21.11;41.85;101849.72;5048837;27;96856;-67
2022/09/02 00:52:39;;;;;;;2.00;0.90;;;;;;;20.74;42.63;101840.38;5045089;27;99342;-67
2022/09/02 00:55:12;;;;;;;1.60;0.93;;;;;;;20.91;42.22;101848.25;5048540;27;99026;-67
2022/09/02 00:57:46;;;;;;;2.20;0.75;;;;;;;21.04;41.65;101842.03;5048753;27;96770;-67
2022/09/02 01:00:17;;;;;;;1.02;0.73;;;;;;;21.06;41.53;101845.50;5047213;27;97098;-67
2022/09/02 01:02:47;;;;;;;5.10;1.23;;;;;;;21.03;41.81;101850.19;5051024;27;100100;-67
2022/09/02 01:05:18;;;;;;;1.33;0.65;;;;;;;21.14;41.59;101841.44;5049413;27;99006;-66
2022/09/02 01:07:45;;;;;;;3.20;1.00;;;;;;;21.08;41.70;101845.38;5050160;27;96857;-67
2022/09/02 01:10:15;;;;;;;1.50;0.75;;;;;;;21.07;42.03;101847.22;5051249;27;96807;-67
2022/09/02 01:12:43;;;;;;;1.48;0.68;;;;;;;21.13;41.42;101835.25;5046456;27;98430;-66
2022/09/02 01:15:11;;;;;;;2.08;0.82;;;;;;;21.02;41.43;101835.88;5051412;27;101221;-66
2022/09/02 01:17:41;;;;;;;0.80;0.57;;;;;;;21.11;41.20;101836.28;5051571;27;97120;-66
2022/09/02 01:20:12;;;;;;;1.00;0.80;;;;;;;21.04;41.36;101838.47;5049667;27;96912;-67
2022/09/02 01:22:41;;;;;;;1.98;0.63;;;;;;;20.95;41.69;101842.59;5051183;27;97168;-67
2022/09/02 01:25:12;;;;;;;1.70;0.70;;;;;;;21.13;41.30;101840.63;5049138;27;99016;-66
2022/09/02 01:27:39;;;;;;;2.70;0.77;;;;;;;21.19;41.64;101842.94;5052067;27;97332;-66
2022/09/02 01:30:09;;;;;;;2.88;0.80;;;;;;;21.16;41.47;101837.75;5050379;27;96835;-66
2022/09/02 01:32:36;;;;;;;0.60;0.60;;;;;;;21.02;41.57;101829.66;5050384;27;98998;-67
2022/09/02 01:35:03;;;;;;;0.57;0.57;;;;;;;20.88;41.75;101833.19;5041159;27;99136;-66
2022/09/02 01:37:30;;;;;;;0.70;0.70;;;;;;;21.07;41.83;101832.91;5050871;27;96971;-66
2022/09/02 01:40:01;;;;;;;3.35;0.90;;;;;;;21.06;41.11;101824.00;5046717;27;96792;-66
2022/09/02 01:42:27;;;;;;;3.10;1.10;;;;;;;21.03;41.30;101831.38;5052678;27;98982;-66
2022/09/02 01:44:54;;;;;;;3.67;0.80;;;;;;;21.03;41.19;101834.94;5048072;27;98782;-67
2022/09/02 01:47:25;;;;;;;1.15;0.65;;;;;;;21.06;41.16;101833.88;5052107;27;97172;-67
2022/09/02 01:49:52;;;;;;;6.55;0.93;;;;;;;21.17;41.21;101836.78;5049999;27;97159;-66
2022/09/02 01:52:20;;;;;;;2.95;0.68;;;;;;;21.12;41.27;101830.81;5051700;27;97616;-67
2022/09/02 01:54:50;;;;;;;1.75;0.88;;;;;;;21.11;41.07;101836.28;5052819;27;101503;-67
2022/09/02 01:57:17;;;;;;;2.95;0.70;;;;;;;21.07;41.08;101827.53;5048494;27;96815;-67
2022/09/02 01:59:45;;;;;;;1.98;0.80;;;;;;;21.07;41.21;101832.91;5048353;27;96717;-67
2022/09/02 02:02:14;;;;;;;2.85;1.00;;;;;;;21.09;41.05;101833.69;5051370;27;98291;-68
2022/09/02 02:04:41;;;;;;;1.67;0.60;;;;;;;20.86;41.19;101823.50;5050043;27;99183;-66
2022/09/02 02:07:08;;;;;;;1.65;0.65;;;;;;;20.83;41.53;101821.00;5054165;27;97283;-67
2022/09/02 02:09:35;;;;;;;2.30;0.63;;;;;;;20.88;41.23;101827.81;5044819;27;96771;-66
2022/09/02 02:12:01;;;;;;;1.20;0.68;;;;;;;20.92;41.10;101828.50;5049601;27;99746;-67
2022/09/02 02:14:29;;;;;;;2.75;0.70;;;;;;;20.72;41.52;101824.34;5050055;27;99402;-68
2022/09/02 02:16:56;;;;;;;1.38;0.50;;;;;;;20.89;41.58;101821.47;5051516;27;97110;-66
2022/09/02 02:19:24;;;;;;;2.47;0.77;;;;;;;20.89;41.46;101824.16;5050943;27;96788;-66
2022/09/02 02:21:51;;;;;;;3.72;1.00;;;;;;;20.90;41.53;101823.22;5042429;27;99592;-67
2022/09/02 02:24:18;;;;;;;2.53;1.02;;;;;;;20.66;41.84;101812.16;5047096;27;97730;-65
2022/09/02 02:26:45;;;;;;;2.80;1.25;;;;;;;20.80;41.46;101816.69;5051030;27;96764;-67
2022/09/02 02:29:13;;;;;;;1.52;0.70;;;;;;;20.75;41.78;101818.78;5048171;27;97240;-67
2022/09/02 02:31:44;;;;;;;2.00;0.95;;;;;;;20.80;41.65;101819.38;5047054;27;98962;-67
2022/09/02 02:34:10;;;;;;;2.47;1.10;;;;;;;20.75;41.90;101824.16;5049100;27;99654;-65
2022/09/02 02:36:37;;;;;;;2.00;0.80;;;;;;;20.62;42.40;101820.47;5045939;27;96739;-67
2022/09/02 02:39:05;;;;;;;2.15;0.90;;;;;;;20.74;42.08;101819.75;5047785;27;96804;-66
2022/09/02 02:41:32;;;;;;;1.63;0.60;;;;;;;20.78;41.91;101809.69;5053619;27;99211;-68
2022/09/02 02:44:04;;;;;;;0.50;0.50;;;;;;;20.67;42.53;101821.09;5050483;27;99045;-66
2022/09/02 02:46:32;;;;;;;1.33;0.68;;;;;;;20.60;42.37;101815.22;5050532;27;97769;-68
2022/09/02 02:49:00;;;;;;;1.70;0.70;;;;;;;20.67;42.20;101818.41;5050538;27;97356;-65
2022/09/02 02:51:27;;;;;;;3.03;0.80;;;;;;;20.56;42.44;101818.16;5047244;27;99337;-70
2022/09/02 02:53:53;;;;;;;2.90;0.88;;;;;;;20.54;42.50;101812.03;5051012;27;99640;-66
2022/09/02 02:56:20;;;;;;;0.88;0.60;;;;;;;20.47;42.83;101818.72;5050420;27;96696;-66
2022/09/02 02:58:47;;;;;;;0.80;0.70;;;;;;;20.50;43.12;101822.09;5050975;27;96811;-67
2022/09/02 03:01:15;;;;;;;1.40;1.08;;;;;;;20.47;43.09;101816.91;5041606;27;97957;-67
2022/09/02 03:03:43;;;;;;;5.20;0.82;;;;;;;20.54;42.85;101820.09;5050193;27;99044;-66
2022/09/02 03:06:12;;;;;;;1.55;0.93;;;;;;;20.30;43.50;101808.94;5045668;27;97257;-67
2022/09/02 03:08:38;;;;;;;1.63;1.10;;;;;;;20.48;43.41;101804.34;5050843;27;96879;-68
2022/09/02 03:11:05;;;;;;;1.95;1.20;;;;;;;20.30;43.54;101811.63;5046831;27;99467;-66
2022/09/02 03:13:32;;;;;;;2.60;0.90;;;;;;;20.30;43.71;101817.00;5050364;27;98794;-66
2022/09/02 03:15:59;;;;;;;2.17;1.10;;;;;;;20.21;43.75;101813.06;5049103;27;97537;-67
2022/09/02 03:18:25;;;;;;;0.93;0.80;;;;;;;20.17;44.21;101811.50;5048321;27;96868;-67
2022/09/02 03:20:52;;;;;;;2.05;1.08;;;;;;;20.22;43.89;101809.41;5046111;27;99355;-66
2022/09/02 03:23:20;;;;;;;2.92;1.13;;;;;;;20.18;44.26;101805.19;5046228;27;98798;-66
2022/09/02 03:25:46;;;;;;;1.65;0.85;;;;;;;20.21;43.85;101806.81;5051422;27;97670;-68
2022/09/02 03:28:13;;;;;;;1.67;0.70;;;;;;;20.22;43.74;101804.03;5049120;27;97221;-67
2022/09/02 03:30:41;;;;;;;1.25;0.90;;;;;;;20.20;44.00;101800.59;5045508;27;97641;-66
2022/09/02 03:33:07;;;;;;;5.07;0.90;;;;;;;20.20;43.60;101805.97;5052195;27;97744;-67
2022/09/02 03:35:39;;;;;;;3.85;1.00;;;;;;;20.19;43.63;101804.22;5045359;27;96700;-67
2022/09/02 03:38:05;;;;;;;1.42;1.25;;;;;;;20.10;43.89;101802.06;5048465;27;96994;-66
2022/09/02 03:40:35;;;;;;;2.38;1.08;;;;;;;20.09;43.85;101802.16;5047791;27;98910;-66
2022/09/02 03:43:02;;;;;;;1.67;0.90;;;;;;;20.20;43.87;101802.41;5037131;27;99079;-67
2022/09/02 03:45:29;;;;;;;1.65;1.00;;;;;;;20.01;44.06;101799.06;5046944;27;96877;-65
2022/09/02 03:47:57;;;;;;;0.85;0.70;;;;;;;20.14;43.89;101800.97;5040587;27;97449;-66
2022/09/02 03:50:26;;;;;;;2.58;0.95;;;;;;;20.08;44.13;101800.44;5048960;27;99476;-66
2022/09/02 03:52:53;;;;;;;3.22;0.90;;;;;;;20.12;44.05;101800.19;5051267;27;98832;-67
2022/09/02 03:55:25;;;;;;;3.85;1.25;;;;;;;19.97;44.50;101798.38;5047351;27;96859;-66
2022/09/02 03:57:54;;;;;;;5.10;1.20;;;;;;;20.02;44.46;101801.66;5048080;27;96924;-66
2022/09/02 04:00:23;;;;;;;1.48;1.17;;;;;;;19.93;44.89;101802.19;5049332;27;99203;-66
2022/09/02 04:02:49;;;;;;;3.95;1.00;;;;;;;19.80;45.12;101801.19;5048404;27;98692;-67
2022/09/02 04:05:16;;;;;;;1.38;0.98;;;;;;;19.89;44.99;101800.63;5048858;27;97137;-66
2022/09/02 04:07:43;;;;;;;5.35;1.23;;;;;;;19.80;45.11;101806.53;5049904;27;96925;-66
2022/09/02 04:10:13;;;;;;;3.92;1.30;;;;;;;19.93;44.81;101804.03;5046764;27;101556;-67
2022/09/02 04:12:40;;;;;;;3.35;1.20;;;;;;;19.92;45.00;101808.50;5045808;27;99854;-67
2022/09/02 04:15:10;;;;;;;3.97;1.10;;;;;;;19.93;45.00;101807.56;5049277;27;96872;-68
2022/09/02 04:17:38;;;;;;;6.32;1.40;;;;;;;19.87;45.01;101807.94;5047557;27;96782;-67
2022/09/02 04:20:06;;;;;;;3.95;1.10;;;;;;;19.92;45.13;101805.84;5048822;27;98913;-67
2022/09/02 04:22:34;;;;;;;3.13;1.00;;;;;;;19.77;45.46;101814.75;5045447;27;99719;-67
2022/09/02 04:25:00;;;;;;;4.78;1.85;;;;;;;19.77;45.62;101809.38;5044615;27;97601;-68
2022/09/02 04:27:27;;;;;;;4.45;1.17;;;;;;;19.73;45.54;101807.84;5053047;27;96751;-67
2022/09/02 04:29:55;;;;;;;4.82;1.10;;;;;;;19.96;45.03;101812.75;5046509;27;101596;-66
2022/09/02 04:32:22;;;;;;;4.68;1.30;;;;;;;19.89;45.42;101811.34;5051973;27;98986;-69
2022/09/02 04:34:50;;;;;;;5.60;1.20;;;;;;;19.95;45.05;101808.34;5052323;27;97076;-67
2022/09/02 04:37:18;;;;;;;5.50;1.23;;;;;;;20.02;44.85;101814.22;5051846;27;97139;-66
2022/09/02 04:39:45;;;;;;;1.92;1.02;;;;;;;19.89;44.99;101816.72;5053020;27;98979;-66
2022/09/02 04:42:11;;;;;;;1.58;1.00;;;;;;;20.03;44.84;101811.44;5058470;27;99141;-66
2022/09/02 04:44:37;;;;;;;3.28;1.35;;;;;;;19.98;45.28;101809.97;5046034;27;96994;-66
2022/09/02 04:47:04;;;;;;;3.63;1.30;;;;;;;19.93;45.09;101809.38;5047551;27;99475;-67
2022/09/02 04:49:32;;;;;;;3.47;1.40;;;;;;;19.89;45.49;101806.00;5051199;27;98624;-68
2022/09/02 04:51:58;;;;;;;3.72;1.63;;;;;;;19.85;45.12;101812.50;5050480;27;101089;-67
2022/09/02 04:54:25;;;;;;;3.45;1.30;;;;;;;19.93;45.23;101807.56;5051876;27;96705;-66
2022/09/02 04:56:51;;;;;;;11.23;3.00;;;;;;;19.76;45.41;101811.19;5049920;27;97833;-66
2022/09/02 04:59:19;;;;;;;2.28;1.20;;;;;;;19.85;45.35;101810.69;5049363;27;97133;-67
2022/09/02 05:01:45;;;;;;;2.45;1.35;;;;;;;19.80;45.35;101815.47;5050855;27;99551;-67
2022/09/02 05:04:12;;;;;;;3.92;1.60;;;;;;;19.74;45.74;101818.50;5046946;27;97149;-67
2022/09/02 05:06:44;;;;;;;2.47;1.23;;;;;;;19.83;45.16;101817.06;5051885;27;96921;-68
2022/09/02 05:09:17;;;;;;;4.57;1.50;;;;;;;19.85;45.33;101812.50;5051078;27;100887;-66
2022/09/02 05:11:47;;;;;;;3.97;1.30;;;;;;;19.87;45.55;101819.53;5045523;27;99679;-66
2022/09/02 05:14:14;;;;;;;3.28;1.20;;;;;;;19.75;45.53;101816.69;5042022;27;98072;-66
2022/09/02 05:16:44;;;;;;;4.05;1.40;;;;;;;19.73;45.82;101819.44;5051394;27;96908;-67
2022/09/02 05:19:12;;;;;;;6.47;1.63;;;;;;;19.78;45.59;101817.34;5050594;27;99709;-66
2022/09/02 05:21:41;;;;;;;2.72;1.67;;;;;;;19.87;45.53;101822.19;5048033;27;99338;-67
2022/09/02 05:24:08;;;;;;;4.80;1.50;;;;;;;20.01;44.95;101829.47;5047681;27;96852;-67
2022/09/02 05:26:35;;;;;;;1.63;1.30;;;;;;;20.00;45.20;101832.22;5047047;27;96774;-67
2022/09/02 05:29:02;;;;;;;3.15;1.50;;;;;;;20.20;44.85;101824.75;5049180;27;98816;-65
2022/09/02 05:31:28;;;;;;;3.58;1.30;;;;;;;20.45;44.55;101828.69;5051986;27;99963;-68
2022/09/02 05:33:56;;;;;;;3.75;1.50;;;;;;;20.26;44.53;101829.75;5044816;27;96800;-67
2022/09/02 05:36:24;;;;;;;1.38;1.27;;;;;;;20.45;43.85;101823.31;5046537;27;96786;-66
2022/09/02 05:38:52;;;;;;;2.85;1.65;;;;;;;20.52;43.67;101833.59;5046661;27;98956;-67
2022/09/02 05:41:22;;;;;;;2.00;1.00;;;;;;;20.53;43.97;101834.47;5045136;27;98952;-67
2022/09/02 05:43:50;;;;;;;11.40;2.50;;;;;;;20.63;43.68;101835.63;5048274;27;96871;-68
2022/09/02 05:46:20;;;;;;;3.85;1.65;;;;;;;20.68;43.74;101834.41;5049366;27;96922;-67
2022/09/02 05:49:08;;;;;;;5.50;2.15;;;;;;;20.78;43.37;101821.28;5046152;27;99205;-68
2022/09/02 05:51:40;;;;;;;5.13;1.80;;;;;;;20.76;43.46;101822.31;5046476;27;98802;-67
2022/09/02 05:54:13;;;;;;;6.82;2.03;;;;;;;20.62;43.77;101820.47;5049619;27;96984;-67
2022/09/02 05:56:44;;;;;;;9.60;2.40;;;;;;;20.89;43.26;101824.16;5049319;27;97967;-67
2022/09/02 05:59:10;;;;;;;5.45;1.65;;;;;;;21.04;43.22;101825.91;5048899;27;99159;-67
2022/09/02 06:01:37;;;;;;;7.75;2.15;;;;;;;20.93;43.27;101831.09;5053380;27;98959;-67
2022/09/02 06:04:05;;;;;;;9.38;1.83;;;;;;;20.98;43.09;101828.13;5049007;27;97270;-67
2022/09/02 06:06:33;;;;;;;5.70;1.65;;;;;;;21.06;42.76;101832.06;5054403;27;97271;-66
2022/09/02 06:09:04;;;;;;;3.10;1.25;;;;;;;21.25;42.65;101828.25;5045093;27;99041;-67
2022/09/02 06:11:33;;;;;;;6.90;1.85;;;;;;;21.16;42.75;101829.69;5050218;27;99191;-66
2022/09/02 06:14:00;;;;;;;6.93;1.58;;;;;;;21.34;42.25;101833.03;5048872;27;96959;-67
2022/09/02 06:16:29;;;;;;;6.90;1.40;;;;;;;21.24;42.23;101830.06;5040829;27;96862;-66
2022/09/02 06:18:55;;;;;;;12.40;1.90;;;;;;;21.39;42.10;101830.94;5044373;27;98700;-68
2022/09/02 06:21:22;;;;;;;7.43;1.92;;;;;;;21.29;42.23;101832.47;5047786;27;98812;-67
2022/09/02 06:23:50;;;;;;;21.70;2.65;;;;;;;21.46;42.01;101832.28;5051540;27;96705;-67
2022/09/02 06:26:17;;;;;;;7.68;1.90;;;;;;;21.44;41.92;101828.81;5048159;27;96862;-66
2022/09/02 06:28:45;;;;;;;5.85;1.55;;;;;;;21.47;41.89;101826.78;5049956;27;98303;-67
2022/09/02 06:31:15;;;;;;;16.05;2.22;;;;;;;21.43;42.02;101833.31;5050829;27;99060;-67
2022/09/02 06:33:41;;;;;;;4.90;1.80;;;;;;;21.21;42.38;101822.19;5051053;27;96759;-68
2022/09/02 06:36:10;;;;;;;6.72;1.65;;;;;;;21.50;42.08;101825.72;5048802;27;97603;-67
2022/09/02 06:38:39;;;;;;;7.03;1.70;;;;;;;21.63;41.50;101823.97;5045360;27;100299;-67
2022/09/02 06:41:06;;;;;;;12.13;2.13;;;;;;;21.59;41.81;101821.59;5049189;27;98820;-67
2022/09/02 06:43:33;;;;;;;10.95;1.90;;;;;;;21.81;41.54;101829.97;5048640;27;96901;-67
2022/09/02 06:46:01;;;;;;;8.10;1.60;;;;;;;21.94;41.10;101821.97;5042887;27;97009;-67
2022/09/02 06:48:27;;;;;;;7.78;2.00;;;;;;;22.17;40.76;101824.91;5046918;27;99248;-66
2022/09/02 06:50:54;;;;;;;4.78;1.90;;;;;;;22.42;40.15;101825.94;5048843;27;98810;-66
2022/09/02 06:53:24;;;;;;;8.80;2.00;;;;;;;22.40;40.47;101819.78;5048326;27;96809;-67
2022/09/02 06:55:51;;;;;;;5.25;1.70;;;;;;;22.66;39.89;101832.31;5045401;27;97221;-67
2022/09/02 06:58:19;;;;;;;7.07;1.98;;;;;;;22.34;40.18;101826.44;5048392;27;99435;-66
2022/09/02 07:00:46;;;;;;;7.07;2.13;;;;;;;22.57;39.78;101823.06;5046188;27;99214;-67
2022/09/02 07:06:02;;;;;;;4.35;1.83;;;;;;;22.71;39.87;101830.16;5050082;27;97058;-67
2022/09/02 07:08:29;;;;;;;5.43;2.22;;;;;;;22.63;39.83;101827.16;5047039;27;97899;-67
2022/09/02 07:10:57;;;;;;;6.65;2.60;;;;;;;22.69;40.01;101821.34;5049843;27;99516;-67
2022/09/02 07:13:27;;;;;;;7.40;2.78;;;;;;;23.03;39.29;101825.28;5046512;27;96726;-66
2022/09/02 07:15:53;;;;;;;11.65;2.72;;;;;;;23.07;39.29;101821.38;5053496;27;97226;-66
2022/09/02 07:18:21;;;;;;;10.23;2.78;;;;;;;22.87;39.53;101830.00;5048131;27;99125;-68
2022/09/02 07:20:48;;;;;;;7.05;2.05;;;;;;;22.84;39.38;101830.22;5048152;27;100997;-67
2022/09/02 07:23:17;;;;;;;10.35;2.03;;;;;;;23.14;39.31;101828.06;5044091;27;97400;-66
2022/09/02 07:25:44;;;;;;;7.72;1.85;;;;;;;23.50;39.01;101832.66;5047063;27;97361;-67
2022/09/02 07:28:11;;;;;;;11.60;2.47;;;;;;;23.93;37.85;101833.09;5049071;27;99408;-67
2022/09/02 07:30:41;;;;;;;5.70;2.10;;;;;;;24.03;37.22;101827.84;5047353;27;98169;-67
2022/09/02 07:33:10;;;;;;;6.10;1.95;;;;;;;24.01;37.27;101825.28;5044444;27;97081;-67
2022/09/02 07:35:40;;;;;;;6.65;1.88;;;;;;;23.83;37.59;101823.94;5044636;27;98624;-67
2022/09/02 07:38:06;;;;;;;6.32;1.92;;;;;;;23.95;37.61;101828.44;5042514;27;99469;-67
2022/09/02 07:40:36;;;;;;;3.97;1.60;;;;;;;23.97;37.58;101829.19;5048791;27;99131;-67
2022/09/02 07:43:07;;;;;;;12.70;1.90;;;;;;;23.82;37.57;101827.63;5048857;27;96849;-67
2022/09/02 07:45:34;;;;;;;8.60;2.20;;;;;;;24.08;36.89;101831.94;5049340;27;97178;-66
2022/09/02 07:48:01;;;;;;;3.95;1.73;;;;;;;23.99;37.29;101826.38;5042639;27;99401;-66
2022/09/02 07:50:28;;;;;;;7.22;1.85;;;;;;;23.84;37.73;101829.22;5046918;27;99780;-67
2022/09/02 07:52:58;;;;;;;7.32;1.70;;;;;;;23.81;38.13;101828.59;5048363;27;97865;-68
2022/09/02 07:55:25;;;;;;;4.95;1.50;;;;;;;23.97;37.43;101829.19;5047334;27;97234;-67
2022/09/02 07:57:54;;;;;;;8.52;1.85;;;;;;;23.93;37.52;101830.38;5044824;27;99276;-67
2022/09/02 08:00:21;;;;;;;4.05;1.83;;;;;;;24.18;37.75;101826.69;5047830;27;98834;-66
2022/09/02 08:02:49;;;;;;;5.07;1.52;;;;;;;24.30;37.05;101824.94;5034347;27;97000;-67
2022/09/02 08:05:16;;;;;;;15.20;2.58;;;;;;;24.47;36.93;101825.41;5041486;27;97417;-66
2022/09/02 08:07:44;;;;;;;2.80;1.67;;;;;;;24.74;36.47;101827.81;5048378;27;101722;-66
2022/09/02 08:10:15;;;;;;;2.65;1.60;;;;;;;25.00;35.85;101826.66;5051609;27;99915;-66
2022/09/02 08:12:43;;;;;;;2.65;1.50;;;;;;;24.68;36.08;101832.81;5050626;27;97583;-67
2022/09/02 08:15:14;;;;;;;2.55;1.40;;;;;;;24.69;36.33;101832.69;5047674;27;97848;-67
2022/09/02 08:17:45;;;;;;;4.15;1.60;;;;;;;24.55;36.56;101827.47;5049164;27;99054;-67
2022/09/02 08:20:13;;;;;;;4.68;1.35;;;;;;;24.41;36.90;101828.56;5039905;27;99125;-69
2022/09/02 08:22:48;;;;;;;2.15;1.00;;;;;;;24.50;36.83;101822.44;5043525;27;99939;-66
2022/09/02 08:25:20;;;;;;;6.30;1.80;;;;;;;24.76;36.32;101825.81;5046863;27;96997;-66
2022/09/02 08:27:46;;;;;;;4.85;1.20;;;;;;;24.78;36.25;101821.16;5053661;27;98221;-66
2022/09/02 08:30:20;;;;;;;5.50;1.77;;;;;;;24.79;36.17;101825.59;5046067;27;98775;-67
2022/09/02 08:32:50;;;;;;;4.38;1.20;;;;;;;25.20;35.66;101825.06;5047506;27;96875;-68
2022/09/02 08:35:16;;;;;;;3.75;1.40;;;;;;;25.28;36.08;101822.59;5050175;27;97155;-67
2022/09/02 08:37:44;;;;;;;4.72;1.20;;;;;;;25.56;35.28;101823.06;5050826;27;98450;-67
2022/09/02 08:40:15;;;;;;;4.38;1.10;;;;;;;25.69;34.60;101815.69;5052119;27;98819;-67
2022/09/02 08:42:46;;;;;;;4.18;1.00;;;;;;;25.66;34.36;101814.13;5050649;27;96849;-67
2022/09/02 08:45:20;;;;;;;5.70;1.42;;;;;;;25.83;34.13;101812.72;5046844;27;96900;-67
2022/09/02 08:47:53;;;;;;;2.30;0.80;;;;;;;25.79;33.42;101814.81;5046160;27;98895;-68
2022/09/02 08:50:20;;;;;;;8.27;0.95;;;;;;;25.92;33.31;101813.81;5047413;27;99335;-68
2022/09/02 08:52:58;;;;;;;3.88;0.73;;;;;;;25.99;33.06;101812.31;5049821;27;96903;-67
2022/09/02 08:55:31;;;;;;;2.60;0.80;;;;;;;25.86;32.53;101819.72;5048218;27;96967;-67
2022/09/02 08:58:01;;;;;;;5.25;0.80;;;;;;;25.89;32.76;101814.03;5045957;27;99092;-67
2022/09/02 09:00:34;;;;;;;5.70;1.65;;;;;;;25.88;33.12;101812.31;5049680;27;99238;-67
2022/09/02 09:03:04;;;;;;;3.58;0.90;;;;;;;25.87;33.31;101810.59;5045617;27;97671;-66
2022/09/02 09:05:43;;;;;;;3.45;1.02;;;;;;;25.98;32.59;101803.31;5049488;27;97312;-66
2022/09/02 09:08:19;;;;;;;3.45;1.13;;;;;;;26.07;32.66;101807.06;5051673;27;99504;-67
2022/09/02 09:10:55;;;;;;;4.05;1.05;;;;;;;26.17;32.49;101802.63;5045313;27;98862;-67
2022/09/02 09:14:02;;;;;;;2.50;0.95;;;;;;;26.22;33.06;101794.97;5049667;27;98796;-67
2022/09/02 09:16:41;;;;;;;2.90;1.02;;;;;;;26.19;32.19;101795.19;5044310;27;97684;-68
2022/09/02 09:19:16;;;;;;;1.73;0.70;;;;;;;26.15;31.55;101794.63;5045811;27;99167;-67
2022/09/02 09:21:44;;;;;;;3.85;0.70;;;;;;;25.96;31.86;101791.75;5040423;27;98934;-67
2022/09/02 09:24:22;;;;;;;3.25;0.82;;;;;;;25.83;31.82;101788.34;5048433;27;97865;-67
2022/09/02 09:26:48;;;;;;;7.07;0.73;;;;;;;26.04;31.43;101791.09;5049061;27;98494;-67
2022/09/02 09:29:16;;;;;;;4.40;0.70;;;;;;;26.17;31.59;101780.94;5044855;27;99657;-67
2022/09/02 09:31:44;;;;;;;5.55;0.68;;;;;;;26.48;31.52;101790.06;5042820;27;99320;-68
2022/09/02 09:34:13;;;;;;;3.78;0.73;;;;;;;26.51;31.14;101785.25;5044752;27;97235;-67
2022/09/02 09:36:52;;;;;;;3.75;0.68;;;;;;;26.57;30.31;101784.72;5047646;27;98715;-67
2022/09/02 09:39:28;;;;;;;0.85;0.50;;;;;;;26.32;29.21;101782.38;5054502;27;98938;-67
2022/09/02 09:42:00;;;;;;;4.80;0.68;;;;;;;25.88;29.79;101777.13;5047072;27;98722;-66
2022/09/02 09:44:48;;;;;;;3.35;0.80;;;;;;;25.89;29.98;101776.13;5045300;27;96954;-67
2022/09/02 09:47:18;;;;;;;3.83;0.52;;;;;;;26.15;29.28;101780.22;5040820;27;97254;-69
2022/09/02 09:49:47;;;;;;;0.75;0.75;;;;;;;26.44;29.04;101777.78;5045741;27;98773;-66
2022/09/02 09:52:25;;;;;;;3.70;0.63;;;;;;;26.38;28.58;101771.03;5044135;27;98736;-67
2022/09/02 09:55:21;;;;;;;2.00;0.50;;;;;;;26.31;28.75;101774.41;5041829;27;97296;-66
2022/09/02 09:57:52;;;;;;;3.50;0.63;;;;;;;26.52;29.07;101765.25;4979194;28;96965;-67
2022/09/02 10:00:31;;;;;;;2.38;0.50;;;;;;;26.73;29.11;101767.94;5026753;27;98852;-67
2022/09/02 10:03:04;;;;;;;1.30;0.60;;;;;;;26.88;29.12;101765.75;5044863;27;101037;-67
2022/09/02 10:05:34;;;;;;;1.38;0.63;;;;;;;26.74;28.87;101763.38;5041051;27;98736;-67
2022/09/02 10:08:04;;;;;;;1.45;0.60;;;;;;;26.78;28.85;101764.88;5043119;27;98760;-67
2022/09/02 10:10:35;;;;;;;1.75;0.73;;;;;;;26.93;28.99;101758.09;5045215;27;102164;-67
2022/09/02 10:13:22;;;;;;;1.30;0.60;;;;;;;27.01;28.89;101754.72;5046549;27;101463;-67
2022/09/02 10:16:05;;;;;;;2.13;0.57;;;;;;;27.12;28.43;101738.31;5043922;27;96818;-66
2022/09/02 10:18:38;;;;;;;2.47;0.57;;;;;;;27.14;28.22;101758.91;5042909;27;96925;-67
2022/09/02 10:21:10;;;;;;;2.97;0.57;;;;;;;27.15;28.26;101763.34;5043158;27;99348;-67
2022/09/02 10:23:48;;;;;;;4.03;0.98;;;;;;;26.79;28.32;101747.56;5042988;27;99174;-67
2022/09/02 10:26:25;;;;;;;4.22;0.90;;;;;;;26.38;28.71;101752.06;5045132;27;97752;-68
2022/09/02 10:29:32;;;;;;;1.80;0.70;;;;;;;26.55;28.89;101753.31;5044381;27;96951;-67
2022/09/02 10:32:17;;;;;;;4.77;0.63;;;;;;;26.44;29.30;101748.81;5036293;27;101269;-67
2022/09/02 10:34:56;;;;;;;10.40;1.13;;;;;;;26.61;28.85;101751.91;5040902;27;99026;-67
2022/09/02 10:37:24;;;;;;;3.50;0.95;;;;;;;27.00;28.39;101753.00;5044691;27;97733;-66
2022/09/02 10:40:07;;;;;;;2.72;0.70;;;;;;;26.40;28.59;101747.34;5045667;27;97476;-66
2022/09/02 10:42:50;;;;;;;0.93;0.68;;;;;;;26.46;28.92;101746.81;5044028;27;98512;-68
2022/09/02 10:45:30;;;;;;;5.47;0.70;;;;;;;26.34;29.06;101745.16;5045472;27;100791;-67
2022/09/02 10:48:11;;;;;;;1.58;0.45;;;;;;;25.96;29.24;101742.13;5041797;27;96805;-67
2022/09/02 10:50:41;;;;;;;2.33;1.17;;;;;;;25.65;30.68;101741.16;5040069;27;97527;-67
2022/09/02 10:53:26;;;;;;;1.98;0.70;;;;;;;25.70;29.42;101738.91;5048678;27;98957;-66
2022/09/02 10:55:59;;;;;;;2.58;0.60;;;;;;;25.64;29.85;101734.00;5048030;27;99135;-68
2022/09/02 10:58:36;;;;;;;4.20;0.80;;;;;;;25.78;29.19;101736.44;5046473;27;96742;-66
2022/09/02 11:01:06;;;;;;;2.25;0.70;;;;;;;26.16;29.05;101742.16;5048536;27;97807;-66
2022/09/02 11:03:41;;;;;;;4.85;0.88;;;;;;;26.29;28.98;101746.56;5047609;27;97683;-67
2022/09/02 11:06:14;;;;;;;4.80;1.23;;;;;;;26.84;27.63;101737.19;5049485;27;98799;-67
2022/09/02 11:08:49;;;;;;;1.25;0.65;;;;;;;26.51;27.06;101733.75;5050329;27;96829;-67
2022/09/02 11:11:22;;;;;;;1.55;0.60;;;;;;;26.58;28.08;101731.38;5046109;27;96750;-67
2022/09/02 11:14:02;;;;;;;4.07;0.82;;;;;;;26.35;28.68;101727.94;5048499;27;97709;-67
2022/09/02 11:16:36;;;;;;;2.90;1.15;;;;;;;26.45;28.67;101730.72;5037700;27;99205;-67
2022/09/02 11:19:13;;;;;;;2.03;0.88;;;;;;;26.74;27.89;101720.00;5048226;27;96841;-67
2022/09/02 11:21:49;;;;;;;3.17;0.90;;;;;;;26.89;27.68;101726.84;5048214;27;97121;-67
2022/09/02 11:24:21;;;;;;;0.70;0.63;;;;;;;26.80;26.94;101722.19;5042164;27;99183;-67
2022/09/02 11:26:56;;;;;;;1.42;0.60;;;;;;;26.84;25.80;101726.34;5053161;27;98985;-67
2022/09/02 11:29:33;;;;;;;1.48;0.80;;;;;;;26.72;25.94;101722.00;5044666;27;97058;-67
2022/09/02 11:32:13;;;;;;;2.80;0.60;;;;;;;26.44;26.34;101729.00;5040715;27;97158;-66
2022/09/02 11:34:45;;;;;;;6.03;0.57;;;;;;;26.50;26.76;101723.03;5040400;27;99400;-68
2022/09/02 11:37:23;;;;;;;4.65;0.93;;;;;;;26.69;26.72;101722.28;5046823;27;99395;-68
2022/09/02 11:39:59;;;;;;;1.17;0.50;;;;;;;26.47;26.53;101724.16;5041861;27;96811;-66